sensor_id;sensor_type;location;lat;lon;timestamp;temperature;humidity
18426;DHT22;9340;48.756;9.226;2023-02-25T00:01:03;5.90;99.90
18426;DHT22;9340;48.756;9.226;2023-02-25T00:03:30;6.00;99.90
18426;DHT22;9340;48.756;9.226;2023-02-25T00:05:57;6.00;99.90
18426;DHT22;9340;48.756;9.226;2023-02-25T00:08:24;6.00;99.90
18426;DHT22;9340;48.756;9.226;2023-02-25T00:10:57;6.00;99.90
18426;DHT22;9340;48.756;9.226;2023-02-25T00:13:24;5.90;99.90
18426;DHT22;9340;48.756;9.226;2023-02-25T00:15:51;5.90;99.90
18426;DHT22;9340;48.756;9.226;2023-02-25T00:18:17;6.00;99.90
18426;DHT22;9340;48.756;9.226;2023-02-25T00:20:44;5.90;99.90
18426;DHT22;9340;48.756;9.226;2023-02-25T00:23:11;5.90;99.90
18426;DHT22;9340;48.756;9.226;2023-02-25T00:25:38;5.90;99.90
18426;DHT22;9340;48.756;9.226;2023-02-25T00:28:05;5.80;99.90
18426;DHT22;9340;48.756;9.226;2023-02-25T00:30:33;5.80;99.90
18426;DHT22;9340;48.756;9.226;2023-02-25T00:33:00;5.70;99.90
18426;DHT22;9340;48.756;9.226;2023-02-25T00:35:26;5.70;99.90
18426;DHT22;9340;48.756;9.226;2023-02-25T00:37:53;5.70;99.90
18426;DHT22;9340;48.756;9.226;2023-02-25T00:40:19;5.70;99.90
18426;DHT22;9340;48.756;9.226;2023-02-25T00:42:46;5.60;99.90
18426;DHT22;9340;48.756;9.226;2023-02-25T00:45:15;5.50;99.90
18426;DHT22;9340;48.756;9.226;2023-02-25T00:47:42;5.60;99.90
18426;DHT22;9340;48.756;9.226;2023-02-25T00:50:10;5.60;99.90
18426;DHT22;9340;48.756;9.226;2023-02-25T00:52:39;5.70;99.90
18426;DHT22;9340;48.756;9.226;2023-02-25T00:55:06;5.60;99.90
18426;DHT22;9340;48.756;9.226;2023-02-25T00:57:34;5.70;99.90
18426;DHT22;9340;48.756;9.226;2023-02-25T01:00:01;5.60;99.90
18426;DHT22;9340;48.756;9.226;2023-02-25T01:02:35;5.60;99.90
18426;DHT22;9340;48.756;9.226;2023-02-25T01:05:02;5.60;99.90
18426;DHT22;9340;48.756;9.226;2023-02-25T01:07:29;5.70;99.90
18426;DHT22;9340;48.756;9.226;2023-02-25T01:09:56;5.70;99.90
18426;DHT22;9340;48.756;9.226;2023-02-25T01:12:22;5.60;99.90
18426;DHT22;9340;48.756;9.226;2023-02-25T01:14:49;5.70;99.90
18426;DHT22;9340;48.756;9.226;2023-02-25T01:17:16;5.70;99.90
18426;DHT22;9340;48.756;9.226;2023-02-25T01:19:44;5.70;99.90
18426;DHT22;9340;48.756;9.226;2023-02-25T01:22:11;5.80;99.90
18426;DHT22;9340;48.756;9.226;2023-02-25T01:24:38;5.80;99.90
18426;DHT22;9340;48.756;9.226;2023-02-25T01:27:05;5.80;99.90
18426;DHT22;9340;48.756;9.226;2023-02-25T01:29:36;5.80;99.90
18426;DHT22;9340;48.756;9.226;2023-02-25T01:32:04;5.80;99.90
18426;DHT22;9340;48.756;9.226;2023-02-25T01:34:31;5.90;99.90
18426;DHT22;9340;48.756;9.226;2023-02-25T01:36:59;5.90;99.90
18426;DHT22;9340;48.756;9.226;2023-02-25T01:39:27;5.90;99.90
18426;DHT22;9340;48.756;9.226;2023-02-25T01:41:55;6.00;99.90
18426;DHT22;9340;48.756;9.226;2023-02-25T01:44:27;6.00;99.90
18426;DHT22;9340;48.756;9.226;2023-02-25T01:46:54;6.00;99.90
18426;DHT22;9340;48.756;9.226;2023-02-25T01:49:25;6.10;99.90
18426;DHT22;9340;48.756;9.226;2023-02-25T01:51:55;6.00;99.90
18426;DHT22;9340;48.756;9.226;2023-02-25T01:57:47;5.90;99.90
18426;DHT22;9340;48.756;9.226;2023-02-25T02:00:15;5.80;99.90
18426;DHT22;9340;48.756;9.226;2023-02-25T02:02:44;5.70;99.90
18426;DHT22;9340;48.756;9.226;2023-02-25T02:05:13;5.70;99.90
18426;DHT22;9340;48.756;9.226;2023-02-25T02:07:40;5.70;99.90
18426;DHT22;9340;48.756;9.226;2023-02-25T02:10:10;5.70;99.90
18426;DHT22;9340;48.756;9.226;2023-02-25T02:12:38;5.70;99.90
18426;DHT22;9340;48.756;9.226;2023-02-25T02:15:10;5.70;99.90
18426;DHT22;9340;48.756;9.226;2023-02-25T02:17:40;5.80;99.90
18426;DHT22;9340;48.756;9.226;2023-02-25T02:20:11;5.70;99.90
18426;DHT22;9340;48.756;9.226;2023-02-25T02:22:55;5.70;99.90
18426;DHT22;9340;48.756;9.226;2023-02-25T02:25:47;5.80;99.90
18426;DHT22;9340;48.756;9.226;2023-02-25T02:28:42;5.90;99.90
18426;DHT22;9340;48.756;9.226;2023-02-25T02:31:21;5.70;99.90
18426;DHT22;9340;48.756;9.226;2023-02-25T02:33:57;5.70;99.90
18426;DHT22;9340;48.756;9.226;2023-02-25T02:36:38;5.70;99.90
18426;DHT22;9340;48.756;9.226;2023-02-25T02:39:13;5.70;99.90
18426;DHT22;9340;48.756;9.226;2023-02-25T02:41:47;5.80;99.90
18426;DHT22;9340;48.756;9.226;2023-02-25T02:44:18;5.80;99.90
18426;DHT22;9340;48.756;9.226;2023-02-25T02:46:50;5.70;99.90
18426;DHT22;9340;48.756;9.226;2023-02-25T02:49:20;5.70;99.90
18426;DHT22;9340;48.756;9.226;2023-02-25T02:51:54;5.70;99.90
18426;DHT22;9340;48.756;9.226;2023-02-25T02:54:24;5.60;99.90
18426;DHT22;9340;48.756;9.226;2023-02-25T02:56:53;5.60;99.90
18426;DHT22;9340;48.756;9.226;2023-02-25T02:59:24;5.60;99.90
18426;DHT22;9340;48.756;9.226;2023-02-25T03:01:57;5.60;99.90
18426;DHT22;9340;48.756;9.226;2023-02-25T03:04:29;5.50;99.90
18426;DHT22;9340;48.756;9.226;2023-02-25T03:07:01;5.40;99.90
18426;DHT22;9340;48.756;9.226;2023-02-25T03:09:31;5.50;99.90
18426;DHT22;9340;48.756;9.226;2023-02-25T03:11:59;5.50;99.90
18426;DHT22;9340;48.756;9.226;2023-02-25T03:14:26;5.50;99.90
18426;DHT22;9340;48.756;9.226;2023-02-25T03:16:56;5.50;99.90
18426;DHT22;9340;48.756;9.226;2023-02-25T03:19:27;5.40;99.90
18426;DHT22;9340;48.756;9.226;2023-02-25T03:22:01;5.30;99.90
18426;DHT22;9340;48.756;9.226;2023-02-25T03:24:33;5.30;99.90
18426;DHT22;9340;48.756;9.226;2023-02-25T03:27:21;5.30;99.90
18426;DHT22;9340;48.756;9.226;2023-02-25T03:29:48;5.30;99.90
18426;DHT22;9340;48.756;9.226;2023-02-25T03:32:17;5.40;99.90
18426;DHT22;9340;48.756;9.226;2023-02-25T03:34:47;5.40;99.90
18426;DHT22;9340;48.756;9.226;2023-02-25T03:37:19;5.30;99.90
18426;DHT22;9340;48.756;9.226;2023-02-25T03:39:49;5.30;99.90
18426;DHT22;9340;48.756;9.226;2023-02-25T03:42:20;5.40;99.90
18426;DHT22;9340;48.756;9.226;2023-02-25T03:44:51;5.30;99.90
18426;DHT22;9340;48.756;9.226;2023-02-25T03:47:22;5.40;99.90
18426;DHT22;9340;48.756;9.226;2023-02-25T03:49:55;5.40;99.90
18426;DHT22;9340;48.756;9.226;2023-02-25T03:52:26;5.40;99.90
18426;DHT22;9340;48.756;9.226;2023-02-25T03:54:54;5.20;99.90
18426;DHT22;9340;48.756;9.226;2023-02-25T03:57:24;5.00;99.90
18426;DHT22;9340;48.756;9.226;2023-02-25T03:59:51;4.90;99.90
18426;DHT22;9340;48.756;9.226;2023-02-25T04:02:24;4.80;99.90
18426;DHT22;9340;48.756;9.226;2023-02-25T04:04:52;4.80;99.90
18426;DHT22;9340;48.756;9.226;2023-02-25T04:07:19;4.80;99.90
18426;DHT22;9340;48.756;9.226;2023-02-25T04:09:46;4.90;99.90
18426;DHT22;9340;48.756;9.226;2023-02-25T04:12:12;4.90;99.90
18426;DHT22;9340;48.756;9.226;2023-02-25T04:14:40;5.10;99.90
18426;DHT22;9340;48.756;9.226;2023-02-25T04:17:06;5.20;99.90
18426;DHT22;9340;48.756;9.226;2023-02-25T04:19:37;5.20;99.90
18426;DHT22;9340;48.756;9.226;2023-02-25T04:22:03;5.20;99.90
18426;DHT22;9340;48.756;9.226;2023-02-25T04:24:32;5.30;99.90
18426;DHT22;9340;48.756;9.226;2023-02-25T04:26:59;5.20;99.90
18426;DHT22;9340;48.756;9.226;2023-02-25T04:29:26;5.20;99.90
18426;DHT22;9340;48.756;9.226;2023-02-25T04:31:53;5.10;99.90
18426;DHT22;9340;48.756;9.226;2023-02-25T04:34:20;5.20;99.90
18426;DHT22;9340;48.756;9.226;2023-02-25T04:36:49;5.20;99.90
18426;DHT22;9340;48.756;9.226;2023-02-25T04:39:16;5.30;99.90
18426;DHT22;9340;48.756;9.226;2023-02-25T04:41:44;5.20;99.90
18426;DHT22;9340;48.756;9.226;2023-02-25T04:44:11;5.20;99.90
18426;DHT22;9340;48.756;9.226;2023-02-25T04:46:39;5.10;99.90
18426;DHT22;9340;48.756;9.226;2023-02-25T04:49:07;5.10;99.90
18426;DHT22;9340;48.756;9.226;2023-02-25T04:51:35;5.10;99.90
18426;DHT22;9340;48.756;9.226;2023-02-25T04:54:04;5.10;99.90
18426;DHT22;9340;48.756;9.226;2023-02-25T04:56:33;5.10;99.90
18426;DHT22;9340;48.756;9.226;2023-02-25T04:58:59;5.10;99.90
18426;DHT22;9340;48.756;9.226;2023-02-25T05:01:26;5.00;99.90
18426;DHT22;9340;48.756;9.226;2023-02-25T05:03:52;5.10;99.90
18426;DHT22;9340;48.756;9.226;2023-02-25T05:06:21;5.10;99.90
18426;DHT22;9340;48.756;9.226;2023-02-25T05:08:48;5.10;99.90
18426;DHT22;9340;48.756;9.226;2023-02-25T05:11:17;5.10;99.90
18426;DHT22;9340;48.756;9.226;2023-02-25T05:13:44;5.10;99.90
18426;DHT22;9340;48.756;9.226;2023-02-25T05:16:13;5.00;99.90
18426;DHT22;9340;48.756;9.226;2023-02-25T05:18:41;5.00;99.90
18426;DHT22;9340;48.756;9.226;2023-02-25T05:21:09;5.10;99.90
18426;DHT22;9340;48.756;9.226;2023-02-25T05:23:36;5.10;99.90
18426;DHT22;9340;48.756;9.226;2023-02-25T05:26:03;5.10;99.90
18426;DHT22;9340;48.756;9.226;2023-02-25T05:28:31;5.10;99.90
18426;DHT22;9340;48.756;9.226;2023-02-25T05:30:58;5.00;99.90
18426;DHT22;9340;48.756;9.226;2023-02-25T05:33:25;5.10;99.90
18426;DHT22;9340;48.756;9.226;2023-02-25T05:35:52;5.10;99.90
18426;DHT22;9340;48.756;9.226;2023-02-25T05:38:18;5.00;99.90
18426;DHT22;9340;48.756;9.226;2023-02-25T05:40:45;5.00;99.90
18426;DHT22;9340;48.756;9.226;2023-02-25T05:43:12;5.00;99.90
18426;DHT22;9340;48.756;9.226;2023-02-25T05:45:40;5.00;99.90
18426;DHT22;9340;48.756;9.226;2023-02-25T05:48:07;5.00;99.90
18426;DHT22;9340;48.756;9.226;2023-02-25T05:50:33;4.90;99.90
18426;DHT22;9340;48.756;9.226;2023-02-25T05:53:06;4.80;99.90
18426;DHT22;9340;48.756;9.226;2023-02-25T05:55:34;4.90;99.90
18426;DHT22;9340;48.756;9.226;2023-02-25T05:58:00;4.90;99.90
18426;DHT22;9340;48.756;9.226;2023-02-25T06:00:27;4.90;99.90
18426;DHT22;9340;48.756;9.226;2023-02-25T06:02:55;4.90;99.90
18426;DHT22;9340;48.756;9.226;2023-02-25T06:05:22;5.00;99.90
18426;DHT22;9340;48.756;9.226;2023-02-25T06:07:49;5.00;99.90
18426;DHT22;9340;48.756;9.226;2023-02-25T06:10:16;5.00;99.90
18426;DHT22;9340;48.756;9.226;2023-02-25T06:12:43;5.00;99.90
18426;DHT22;9340;48.756;9.226;2023-02-25T06:15:10;5.00;99.90
18426;DHT22;9340;48.756;9.226;2023-02-25T06:17:38;5.00;99.90
18426;DHT22;9340;48.756;9.226;2023-02-25T06:20:08;4.90;99.90
18426;DHT22;9340;48.756;9.226;2023-02-25T06:22:35;4.90;99.90
18426;DHT22;9340;48.756;9.226;2023-02-25T06:25:02;4.90;99.90
18426;DHT22;9340;48.756;9.226;2023-02-25T06:27:29;4.90;99.90
18426;DHT22;9340;48.756;9.226;2023-02-25T06:29:56;4.90;99.90
18426;DHT22;9340;48.756;9.226;2023-02-25T06:32:23;4.90;99.90
18426;DHT22;9340;48.756;9.226;2023-02-25T06:34:49;4.90;99.90
18426;DHT22;9340;48.756;9.226;2023-02-25T06:37:18;4.90;99.90
18426;DHT22;9340;48.756;9.226;2023-02-25T06:39:45;4.90;99.90
18426;DHT22;9340;48.756;9.226;2023-02-25T06:42:12;4.90;99.90
18426;DHT22;9340;48.756;9.226;2023-02-25T06:44:38;5.00;99.90
18426;DHT22;9340;48.756;9.226;2023-02-25T06:47:05;5.00;99.90
18426;DHT22;9340;48.756;9.226;2023-02-25T06:49:31;5.00;99.90
18426;DHT22;9340;48.756;9.226;2023-02-25T06:51:58;4.90;99.90
18426;DHT22;9340;48.756;9.226;2023-02-25T06:54:26;4.90;99.90
18426;DHT22;9340;48.756;9.226;2023-02-25T06:56:53;4.90;99.90
18426;DHT22;9340;48.756;9.226;2023-02-25T06:59:20;5.00;99.90
18426;DHT22;9340;48.756;9.226;2023-02-25T07:01:47;5.10;99.90
18426;DHT22;9340;48.756;9.226;2023-02-25T07:04:15;5.20;99.90
18426;DHT22;9340;48.756;9.226;2023-02-25T07:06:42;5.30;99.90
18426;DHT22;9340;48.756;9.226;2023-02-25T07:09:08;5.30;99.90
18426;DHT22;9340;48.756;9.226;2023-02-25T07:11:36;5.40;99.90
18426;DHT22;9340;48.756;9.226;2023-02-25T07:14:04;5.50;99.90
18426;DHT22;9340;48.756;9.226;2023-02-25T07:16:32;5.80;99.90
18426;DHT22;9340;48.756;9.226;2023-02-25T07:19:00;5.90;99.90
18426;DHT22;9340;48.756;9.226;2023-02-25T07:21:28;5.90;99.90
18426;DHT22;9340;48.756;9.226;2023-02-25T07:23:55;5.90;99.90
18426;DHT22;9340;48.756;9.226;2023-02-25T07:26:22;6.10;99.90
18426;DHT22;9340;48.756;9.226;2023-02-25T07:28:55;6.10;99.90
18426;DHT22;9340;48.756;9.226;2023-02-25T07:31:22;6.10;99.90
18426;DHT22;9340;48.756;9.226;2023-02-25T07:33:49;6.10;99.90
18426;DHT22;9340;48.756;9.226;2023-02-25T07:36:16;6.20;99.90
18426;DHT22;9340;48.756;9.226;2023-02-25T07:38:43;6.30;99.90
18426;DHT22;9340;48.756;9.226;2023-02-25T07:41:13;6.40;99.90
18426;DHT22;9340;48.756;9.226;2023-02-25T07:43:40;6.50;99.90
18426;DHT22;9340;48.756;9.226;2023-02-25T07:46:09;6.60;99.90
18426;DHT22;9340;48.756;9.226;2023-02-25T07:48:37;6.70;99.90
18426;DHT22;9340;48.756;9.226;2023-02-25T07:51:04;6.70;99.90
18426;DHT22;9340;48.756;9.226;2023-02-25T07:53:31;6.70;99.90
18426;DHT22;9340;48.756;9.226;2023-02-25T07:55:58;6.70;99.90
18426;DHT22;9340;48.756;9.226;2023-02-25T07:58:25;6.80;99.90
18426;DHT22;9340;48.756;9.226;2023-02-25T08:00:53;7.10;99.90
18426;DHT22;9340;48.756;9.226;2023-02-25T08:03:21;7.10;99.90
18426;DHT22;9340;48.756;9.226;2023-02-25T08:05:49;7.10;99.90
18426;DHT22;9340;48.756;9.226;2023-02-25T08:08:16;6.90;99.90
18426;DHT22;9340;48.756;9.226;2023-02-25T08:10:43;6.60;99.90
18426;DHT22;9340;48.756;9.226;2023-02-25T08:13:09;6.50;99.90
18426;DHT22;9340;48.756;9.226;2023-02-25T08:15:39;6.70;99.90
18426;DHT22;9340;48.756;9.226;2023-02-25T08:18:06;7.10;99.90
18426;DHT22;9340;48.756;9.226;2023-02-25T08:20:34;7.20;99.90
18426;DHT22;9340;48.756;9.226;2023-02-25T08:23:01;7.30;99.90
18426;DHT22;9340;48.756;9.226;2023-02-25T08:25:28;7.10;99.90
18426;DHT22;9340;48.756;9.226;2023-02-25T08:27:54;7.00;99.90
18426;DHT22;9340;48.756;9.226;2023-02-25T08:30:22;7.00;99.90
18426;DHT22;9340;48.756;9.226;2023-02-25T08:32:49;6.90;99.90
18426;DHT22;9340;48.756;9.226;2023-02-25T08:35:15;6.80;99.90
18426;DHT22;9340;48.756;9.226;2023-02-25T08:37:44;6.60;99.90
18426;DHT22;9340;48.756;9.226;2023-02-25T08:40:11;6.60;99.90
18426;DHT22;9340;48.756;9.226;2023-02-25T08:42:38;6.60;99.90
18426;DHT22;9340;48.756;9.226;2023-02-25T08:45:05;6.60;99.90
18426;DHT22;9340;48.756;9.226;2023-02-25T08:47:32;6.80;99.90
18426;DHT22;9340;48.756;9.226;2023-02-25T08:49:59;6.60;99.90
18426;DHT22;9340;48.756;9.226;2023-02-25T08:52:26;6.40;99.90
18426;DHT22;9340;48.756;9.226;2023-02-25T08:54:59;6.20;99.90
18426;DHT22;9340;48.756;9.226;2023-02-25T08:57:27;6.10;99.90
18426;DHT22;9340;48.756;9.226;2023-02-25T08:59:53;6.00;99.90
18426;DHT22;9340;48.756;9.226;2023-02-25T09:02:20;5.80;99.90
18426;DHT22;9340;48.756;9.226;2023-02-25T09:04:48;5.80;99.90
18426;DHT22;9340;48.756;9.226;2023-02-25T09:07:15;5.90;99.90
18426;DHT22;9340;48.756;9.226;2023-02-25T09:09:42;5.90;99.90
18426;DHT22;9340;48.756;9.226;2023-02-25T09:12:10;5.80;99.90
18426;DHT22;9340;48.756;9.226;2023-02-25T09:14:36;5.70;99.90
18426;DHT22;9340;48.756;9.226;2023-02-25T09:17:05;5.60;99.90
18426;DHT22;9340;48.756;9.226;2023-02-25T09:19:31;5.60;99.90
18426;DHT22;9340;48.756;9.226;2023-02-25T09:21:58;5.60;99.90
18426;DHT22;9340;48.756;9.226;2023-02-25T09:24:25;5.70;99.90
18426;DHT22;9340;48.756;9.226;2023-02-25T09:26:54;5.80;99.90
18426;DHT22;9340;48.756;9.226;2023-02-25T09:29:22;6.00;99.90
18426;DHT22;9340;48.756;9.226;2023-02-25T09:31:49;6.20;99.90
18426;DHT22;9340;48.756;9.226;2023-02-25T09:34:16;6.20;99.90
18426;DHT22;9340;48.756;9.226;2023-02-25T09:36:43;6.20;99.90
18426;DHT22;9340;48.756;9.226;2023-02-25T09:39:09;6.20;99.90
18426;DHT22;9340;48.756;9.226;2023-02-25T09:41:43;6.20;99.90
18426;DHT22;9340;48.756;9.226;2023-02-25T09:44:13;6.20;99.90
18426;DHT22;9340;48.756;9.226;2023-02-25T09:46:47;6.20;99.90
18426;DHT22;9340;48.756;9.226;2023-02-25T09:49:19;6.30;99.90
18426;DHT22;9340;48.756;9.226;2023-02-25T09:51:51;6.60;99.90
18426;DHT22;9340;48.756;9.226;2023-02-25T09:54:24;6.90;99.90
18426;DHT22;9340;48.756;9.226;2023-02-25T09:56:56;7.30;99.90
18426;DHT22;9340;48.756;9.226;2023-02-25T09:59:27;8.00;99.90
18426;DHT22;9340;48.756;9.226;2023-02-25T10:01:57;8.60;99.90
18426;DHT22;9340;48.756;9.226;2023-02-25T10:04:31;9.00;99.90
18426;DHT22;9340;48.756;9.226;2023-02-25T10:07:06;8.90;99.90
18426;DHT22;9340;48.756;9.226;2023-02-25T10:09:41;8.90;99.90
18426;DHT22;9340;48.756;9.226;2023-02-25T10:12:17;9.00;99.90
18426;DHT22;9340;48.756;9.226;2023-02-25T10:15:03;9.20;99.90
18426;DHT22;9340;48.756;9.226;2023-02-25T10:17:42;9.30;99.90
18426;DHT22;9340;48.756;9.226;2023-02-25T10:20:36;9.30;99.90
18426;DHT22;9340;48.756;9.226;2023-02-25T10:23:12;9.20;99.90
18426;DHT22;9340;48.756;9.226;2023-02-25T10:25:44;9.00;99.90
18426;DHT22;9340;48.756;9.226;2023-02-25T10:28:17;8.90;99.90
18426;DHT22;9340;48.756;9.226;2023-02-25T10:30:53;8.60;99.90
18426;DHT22;9340;48.756;9.226;2023-02-25T10:33:25;8.40;99.90
18426;DHT22;9340;48.756;9.226;2023-02-25T10:35:55;8.40;99.90
18426;DHT22;9340;48.756;9.226;2023-02-25T10:38:23;8.40;99.90
18426;DHT22;9340;48.756;9.226;2023-02-25T10:40:50;8.50;99.90
18426;DHT22;9340;48.756;9.226;2023-02-25T10:43:21;8.60;99.90
18426;DHT22;9340;48.756;9.226;2023-02-25T10:46:06;8.80;99.90
18426;DHT22;9340;48.756;9.226;2023-02-25T10:48:37;8.70;99.90
18426;DHT22;9340;48.756;9.226;2023-02-25T10:51:07;8.60;99.90
18426;DHT22;9340;48.756;9.226;2023-02-25T10:53:38;8.30;99.90
18426;DHT22;9340;48.756;9.226;2023-02-25T10:56:05;8.50;99.90
18426;DHT22;9340;48.756;9.226;2023-02-25T10:58:36;8.70;99.90
18426;DHT22;9340;48.756;9.226;2023-02-25T11:01:08;8.70;99.90
18426;DHT22;9340;48.756;9.226;2023-02-25T11:03:44;8.60;99.90
18426;DHT22;9340;48.756;9.226;2023-02-25T11:06:19;8.80;99.90
18426;DHT22;9340;48.756;9.226;2023-02-25T11:08:47;9.00;99.90
18426;DHT22;9340;48.756;9.226;2023-02-25T11:11:17;9.00;99.90
18426;DHT22;9340;48.756;9.226;2023-02-25T11:13:54;9.00;99.90
18426;DHT22;9340;48.756;9.226;2023-02-25T11:16:21;9.00;99.90
18426;DHT22;9340;48.756;9.226;2023-02-25T11:18:53;9.00;99.90
18426;DHT22;9340;48.756;9.226;2023-02-25T11:21:29;9.00;99.90
18426;DHT22;9340;48.756;9.226;2023-02-25T11:23:58;9.00;99.90
18426;DHT22;9340;48.756;9.226;2023-02-25T11:26:29;9.20;99.90
18426;DHT22;9340;48.756;9.226;2023-02-25T11:28:58;9.40;99.90
18426;DHT22;9340;48.756;9.226;2023-02-25T11:31:30;9.70;99.90
18426;DHT22;9340;48.756;9.226;2023-02-25T11:34:02;9.70;99.90
18426;DHT22;9340;48.756;9.226;2023-02-25T11:36:33;9.60;99.90
18426;DHT22;9340;48.756;9.226;2023-02-25T11:39:06;9.60;99.90
18426;DHT22;9340;48.756;9.226;2023-02-25T11:41:33;9.60;99.90
18426;DHT22;9340;48.756;9.226;2023-02-25T11:44:16;9.40;99.90
18426;DHT22;9340;48.756;9.226;2023-02-25T11:46:45;9.20;99.90
18426;DHT22;9340;48.756;9.226;2023-02-25T11:49:20;8.90;99.90
18426;DHT22;9340;48.756;9.226;2023-02-25T11:51:52;8.40;99.90
18426;DHT22;9340;48.756;9.226;2023-02-25T11:54:24;8.10;99.90
18426;DHT22;9340;48.756;9.226;2023-02-25T11:56:56;8.30;99.90
18426;DHT22;9340;48.756;9.226;2023-02-25T11:59:30;8.30;99.90
18426;DHT22;9340;48.756;9.226;2023-02-25T12:02:18;8.50;99.90
18426;DHT22;9340;48.756;9.226;2023-02-25T12:05:07;8.80;99.90
18426;DHT22;9340;48.756;9.226;2023-02-25T12:08:11;9.20;99.90
18426;DHT22;9340;48.756;9.226;2023-02-25T12:11:00;9.40;99.90
18426;DHT22;9340;48.756;9.226;2023-02-25T12:13:59;9.70;99.90
18426;DHT22;9340;48.756;9.226;2023-02-25T12:19:56;10.10;99.90
18426;DHT22;9340;48.756;9.226;2023-02-25T12:25:38;10.10;99.90
18426;DHT22;9340;48.756;9.226;2023-02-25T12:28:25;10.00;99.90
18426;DHT22;9340;48.756;9.226;2023-02-25T12:31:09;10.00;99.90
18426;DHT22;9340;48.756;9.226;2023-02-25T12:34:01;9.70;99.90
18426;DHT22;9340;48.756;9.226;2023-02-25T12:36:46;9.50;99.90
18426;DHT22;9340;48.756;9.226;2023-02-25T12:39:26;8.90;99.90
18426;DHT22;9340;48.756;9.226;2023-02-25T12:42:10;8.50;99.90
18426;DHT22;9340;48.756;9.226;2023-02-25T12:44:53;8.20;99.90
18426;DHT22;9340;48.756;9.226;2023-02-25T12:47:41;8.10;99.90
18426;DHT22;9340;48.756;9.226;2023-02-25T12:50:37;8.10;99.90
18426;DHT22;9340;48.756;9.226;2023-02-25T12:53:41;8.20;99.90
18426;DHT22;9340;48.756;9.226;2023-02-25T12:56:32;8.00;99.90
18426;DHT22;9340;48.756;9.226;2023-02-25T12:59:22;8.10;99.90
18426;DHT22;9340;48.756;9.226;2023-02-25T13:02:15;8.00;99.90
18426;DHT22;9340;48.756;9.226;2023-02-25T13:04:57;8.00;99.90
18426;DHT22;9340;48.756;9.226;2023-02-25T13:07:45;8.10;99.90
18426;DHT22;9340;48.756;9.226;2023-02-25T13:10:45;8.40;99.90
18426;DHT22;9340;48.756;9.226;2023-02-25T13:13:29;8.00;99.90
18426;DHT22;9340;48.756;9.226;2023-02-25T13:16:20;8.20;99.90
18426;DHT22;9340;48.756;9.226;2023-02-25T13:19:02;8.30;99.90
18426;DHT22;9340;48.756;9.226;2023-02-25T13:21:46;8.20;99.90
18426;DHT22;9340;48.756;9.226;2023-02-25T13:24:32;8.00;99.90
18426;DHT22;9340;48.756;9.226;2023-02-25T13:27:29;8.10;99.90
18426;DHT22;9340;48.756;9.226;2023-02-25T13:30:16;8.10;99.90
18426;DHT22;9340;48.756;9.226;2023-02-25T13:32:52;8.30;99.90
18426;DHT22;9340;48.756;9.226;2023-02-25T13:35:27;8.50;99.90
18426;DHT22;9340;48.756;9.226;2023-02-25T13:38:11;8.60;99.90
18426;DHT22;9340;48.756;9.226;2023-02-25T13:40:50;8.70;99.90
18426;DHT22;9340;48.756;9.226;2023-02-25T13:43:53;8.70;99.90
18426;DHT22;9340;48.756;9.226;2023-02-25T13:46:48;8.70;99.90
18426;DHT22;9340;48.756;9.226;2023-02-25T13:52:24;9.10;99.90
18426;DHT22;9340;48.756;9.226;2023-02-25T13:55:17;9.30;99.90
18426;DHT22;9340;48.756;9.226;2023-02-25T13:58:01;9.30;99.90
18426;DHT22;9340;48.756;9.226;2023-02-25T14:00:46;9.20;99.90
18426;DHT22;9340;48.756;9.226;2023-02-25T14:06:31;8.70;99.90
18426;DHT22;9340;48.756;9.226;2023-02-25T14:09:20;8.40;99.90
18426;DHT22;9340;48.756;9.226;2023-02-25T14:11:55;8.10;99.90
18426;DHT22;9340;48.756;9.226;2023-02-25T14:14:40;8.10;99.90
18426;DHT22;9340;48.756;9.226;2023-02-25T14:17:37;8.00;99.90
18426;DHT22;9340;48.756;9.226;2023-02-25T14:20:20;8.10;99.90
18426;DHT22;9340;48.756;9.226;2023-02-25T14:22:51;7.90;99.90
18426;DHT22;9340;48.756;9.226;2023-02-25T14:25:38;7.90;99.90
18426;DHT22;9340;48.756;9.226;2023-02-25T14:28:14;8.00;99.90
18426;DHT22;9340;48.756;9.226;2023-02-25T14:30:58;8.20;99.90
18426;DHT22;9340;48.756;9.226;2023-02-25T14:33:56;8.40;99.90
18426;DHT22;9340;48.756;9.226;2023-02-25T14:39:28;8.80;99.90
18426;DHT22;9340;48.756;9.226;2023-02-25T14:42:06;8.60;99.90
18426;DHT22;9340;48.756;9.226;2023-02-25T14:44:38;8.60;99.90
18426;DHT22;9340;48.756;9.226;2023-02-25T14:47:10;8.40;99.90
18426;DHT22;9340;48.756;9.226;2023-02-25T14:49:45;8.30;99.90
18426;DHT22;9340;48.756;9.226;2023-02-25T14:52:28;8.40;99.90
18426;DHT22;9340;48.756;9.226;2023-02-25T14:55:28;8.50;99.90
18426;DHT22;9340;48.756;9.226;2023-02-25T14:58:20;8.40;99.90
18426;DHT22;9340;48.756;9.226;2023-02-25T15:01:15;8.50;99.90
18426;DHT22;9340;48.756;9.226;2023-02-25T15:06:52;8.30;99.90
18426;DHT22;9340;48.756;9.226;2023-02-25T15:12:38;8.00;99.90
18426;DHT22;9340;48.756;9.226;2023-02-25T15:15:27;7.90;99.90
18426;DHT22;9340;48.756;9.226;2023-02-25T15:18:18;7.90;99.90
18426;DHT22;9340;48.756;9.226;2023-02-25T15:20:47;7.90;99.90
18426;DHT22;9340;48.756;9.226;2023-02-25T15:23:17;7.90;99.90
18426;DHT22;9340;48.756;9.226;2023-02-25T15:25:47;7.80;99.90
18426;DHT22;9340;48.756;9.226;2023-02-25T15:28:37;7.70;99.90
18426;DHT22;9340;48.756;9.226;2023-02-25T15:31:24;7.70;99.90
18426;DHT22;9340;48.756;9.226;2023-02-25T15:37:25;7.90;99.90
18426;DHT22;9340;48.756;9.226;2023-02-25T15:39:55;8.00;99.90
18426;DHT22;9340;48.756;9.226;2023-02-25T15:42:44;7.90;99.90
18426;DHT22;9340;48.756;9.226;2023-02-25T15:45:36;7.80;99.90
18426;DHT22;9340;48.756;9.226;2023-02-25T15:48:28;7.80;99.90
18426;DHT22;9340;48.756;9.226;2023-02-25T15:50:56;7.80;99.90
18426;DHT22;9340;48.756;9.226;2023-02-25T15:53:42;7.90;99.90
18426;DHT22;9340;48.756;9.226;2023-02-25T15:56:28;7.90;99.90
18426;DHT22;9340;48.756;9.226;2023-02-25T15:58:56;7.80;99.90
18426;DHT22;9340;48.756;9.226;2023-02-25T16:01:27;7.60;99.90
18426;DHT22;9340;48.756;9.226;2023-02-25T16:03:55;7.50;99.90
18426;DHT22;9340;48.756;9.226;2023-02-25T16:06:25;7.50;99.90
18426;DHT22;9340;48.756;9.226;2023-02-25T16:09:03;7.40;99.90
18426;DHT22;9340;48.756;9.226;2023-02-25T16:11:35;7.20;99.90
18426;DHT22;9340;48.756;9.226;2023-02-25T16:14:05;7.00;99.90
18426;DHT22;9340;48.756;9.226;2023-02-25T16:16:33;6.90;99.90
18426;DHT22;9340;48.756;9.226;2023-02-25T16:19:02;6.80;99.90
18426;DHT22;9340;48.756;9.226;2023-02-25T16:21:38;6.60;99.90
18426;DHT22;9340;48.756;9.226;2023-02-25T16:24:07;6.40;99.90
18426;DHT22;9340;48.756;9.226;2023-02-25T16:26:42;6.20;99.90
18426;DHT22;9340;48.756;9.226;2023-02-25T16:29:20;6.20;99.90
18426;DHT22;9340;48.756;9.226;2023-02-25T16:31:54;6.10;99.90
18426;DHT22;9340;48.756;9.226;2023-02-25T16:34:26;6.00;99.90
18426;DHT22;9340;48.756;9.226;2023-02-25T16:37:03;6.00;99.90
18426;DHT22;9340;48.756;9.226;2023-02-25T16:39:31;6.00;99.90
18426;DHT22;9340;48.756;9.226;2023-02-25T16:42:02;6.10;99.90
18426;DHT22;9340;48.756;9.226;2023-02-25T16:44:31;6.20;99.90
18426;DHT22;9340;48.756;9.226;2023-02-25T16:47:00;6.20;99.90
18426;DHT22;9340;48.756;9.226;2023-02-25T16:49:29;6.30;99.90
18426;DHT22;9340;48.756;9.226;2023-02-25T16:51:58;6.30;99.90
18426;DHT22;9340;48.756;9.226;2023-02-25T16:54:28;6.20;99.90
18426;DHT22;9340;48.756;9.226;2023-02-25T16:56:58;6.10;99.90
18426;DHT22;9340;48.756;9.226;2023-02-25T16:59:29;5.90;99.90
18426;DHT22;9340;48.756;9.226;2023-02-25T17:01:58;5.80;99.90
18426;DHT22;9340;48.756;9.226;2023-02-25T17:04:28;5.80;99.90